sensor_id;sensor_type;location;lat;lon;timestamp;pressure;altitude;pressure_sealevel;temperature;humidity
75604;BME280;64187;51.010;13.792;2023-06-14T00:01:02;100246.50;;;15.09;58.51
75604;BME280;64187;51.010;13.792;2023-06-14T00:06:01;100249.75;;;14.80;60.25
75604;BME280;64187;51.010;13.792;2023-06-14T00:11:00;100241.59;;;14.80;60.20
75604;BME280;64187;51.010;13.792;2023-06-14T00:15:59;100241.56;;;14.55;60.95
75604;BME280;64187;51.010;13.792;2023-06-14T00:20:58;100244.00;;;14.51;60.96
75604;BME280;64187;51.010;13.792;2023-06-14T00:25:59;100251.03;;;14.27;62.23
75604;BME280;64187;51.010;13.792;2023-06-14T00:30:58;100242.56;;;14.28;61.65
75604;BME280;64187;51.010;13.792;2023-06-14T00:35:59;100243.31;;;13.98;63.26
75604;BME280;64187;51.010;13.792;2023-06-14T00:40:58;100237.63;;;14.05;63.23
75604;BME280;64187;51.010;13.792;2023-06-14T00:45:57;100237.13;;;14.28;62.69
75604;BME280;64187;51.010;13.792;2023-06-14T00:50:56;100242.53;;;14.08;63.29
75604;BME280;64187;51.010;13.792;2023-06-14T00:55:57;100244.69;;;14.06;63.18
75604;BME280;64187;51.010;13.792;2023-06-14T01:00:55;100241.72;;;14.07;63.46
75604;BME280;64187;51.010;13.792;2023-06-14T01:06:23;100241.16;;;14.05;63.50
75604;BME280;64187;51.010;13.792;2023-06-14T01:11:32;100245.75;;;13.89;64.29
75604;BME280;64187;51.010;13.792;2023-06-14T01:16:36;100251.25;;;14.15;63.28
75604;BME280;64187;51.010;13.792;2023-06-14T01:21:38;100251.75;;;13.96;64.00
75604;BME280;64187;51.010;13.792;2023-06-14T01:26:41;100245.31;;;13.60;65.09
75604;BME280;64187;51.010;13.792;2023-06-14T01:31:45;100232.81;;;13.54;65.40
75604;BME280;64187;51.010;13.792;2023-06-14T01:36:45;100236.16;;;13.76;64.61
75604;BME280;64187;51.010;13.792;2023-06-14T01:41:45;100239.06;;;13.54;65.50
75604;BME280;64187;51.010;13.792;2023-06-14T01:46:45;100226.56;;;13.64;65.78
75604;BME280;64187;51.010;13.792;2023-06-14T01:51:44;100218.88;;;13.45;66.30
75604;BME280;64187;51.010;13.792;2023-06-14T01:56:43;100221.97;;;13.22;67.24
75604;BME280;64187;51.010;13.792;2023-06-14T02:01:42;100227.94;;;13.24;66.58
75604;BME280;64187;51.010;13.792;2023-06-14T02:06:41;100228.28;;;13.27;67.21
75604;BME280;64187;51.010;13.792;2023-06-14T02:11:40;100237.53;;;12.94;68.23
75604;BME280;64187;51.010;13.792;2023-06-14T02:16:39;100244.50;;;12.80;69.26
75604;BME280;64187;51.010;13.792;2023-06-14T02:21:39;100238.91;;;12.64;70.02
75604;BME280;64187;51.010;13.792;2023-06-14T02:26:38;100243.38;;;12.21;71.65
75604;BME280;64187;51.010;13.792;2023-06-14T02:31:38;100243.03;;;12.40;71.34
75604;BME280;64187;51.010;13.792;2023-06-14T02:36:37;100240.94;;;12.20;71.94
75604;BME280;64187;51.010;13.792;2023-06-14T02:41:40;100255.38;;;11.81;73.41
75604;BME280;64187;51.010;13.792;2023-06-14T02:46:39;100254.41;;;11.88;73.40
75604;BME280;64187;51.010;13.792;2023-06-14T02:51:38;100258.06;;;11.81;73.18
75604;BME280;64187;51.010;13.792;2023-06-14T02:56:37;100256.75;;;11.23;75.73
75604;BME280;64187;51.010;13.792;2023-06-14T03:01:36;100258.81;;;11.94;72.60
75604;BME280;64187;51.010;13.792;2023-06-14T03:06:43;100267.28;;;11.80;73.16
75604;BME280;64187;51.010;13.792;2023-06-14T03:11:44;100268.47;;;11.29;75.18
75604;BME280;64187;51.010;13.792;2023-06-14T03:16:44;100262.63;;;11.76;73.53
75604;BME280;64187;51.010;13.792;2023-06-14T03:21:45;100270.97;;;10.96;76.27
75604;BME280;64187;51.010;13.792;2023-06-14T03:26:44;100274.22;;;11.32;75.36
75604;BME280;64187;51.010;13.792;2023-06-14T03:31:58;100275.47;;;12.02;71.71
75604;BME280;64187;51.010;13.792;2023-06-14T03:37:04;100285.34;;;12.36;69.97
75604;BME280;64187;51.010;13.792;2023-06-14T03:42:04;100288.41;;;11.39;74.03
75604;BME280;64187;51.010;13.792;2023-06-14T03:47:04;100299.81;;;11.41;74.04
75604;BME280;64187;51.010;13.792;2023-06-14T03:52:04;100301.22;;;11.27;74.69
75604;BME280;64187;51.010;13.792;2023-06-14T03:57:04;100305.41;;;11.52;73.91
75604;BME280;64187;51.010;13.792;2023-06-14T04:02:05;100307.72;;;11.43;74.37
75604;BME280;64187;51.010;13.792;2023-06-14T04:07:05;100323.25;;;11.14;76.13
75604;BME280;64187;51.010;13.792;2023-06-14T04:12:05;100323.13;;;11.59;74.26
75604;BME280;64187;51.010;13.792;2023-06-14T04:17:04;100326.91;;;11.75;73.73
75604;BME280;64187;51.010;13.792;2023-06-14T04:22:03;100327.44;;;12.16;79.47
75604;BME280;64187;51.010;13.792;2023-06-14T04:27:06;100320.59;;;14.75;69.42
75604;BME280;64187;51.010;13.792;2023-06-14T04:32:07;100314.09;;;15.27;66.97
75604;BME280;64187;51.010;13.792;2023-06-14T04:37:10;100318.72;;;16.43;60.08
75604;BME280;64187;51.010;13.792;2023-06-14T04:42:12;100312.69;;;16.41;60.29
75604;BME280;64187;51.010;13.792;2023-06-14T04:47:13;100325.69;;;17.68;55.53
75604;BME280;64187;51.010;13.792;2023-06-14T04:52:14;100345.75;;;17.29;55.86
75604;BME280;64187;51.010;13.792;2023-06-14T04:57:15;100352.53;;;17.65;54.32
75604;BME280;64187;51.010;13.792;2023-06-14T05:02:18;100354.41;;;17.41;55.46
75604;BME280;64187;51.010;13.792;2023-06-14T05:07:17;100342.56;;;16.22;57.19
75604;BME280;64187;51.010;13.792;2023-06-14T05:12:16;100345.13;;;15.93;58.16
75604;BME280;64187;51.010;13.792;2023-06-14T05:17:17;100363.16;;;15.89;58.58
75604;BME280;64187;51.010;13.792;2023-06-14T05:22:16;100361.25;;;15.84;58.90
75604;BME280;64187;51.010;13.792;2023-06-14T05:27:16;100362.63;;;15.61;60.03
75604;BME280;64187;51.010;13.792;2023-06-14T05:32:15;100361.81;;;15.71;59.13
75604;BME280;64187;51.010;13.792;2023-06-14T05:37:14;100361.00;;;15.19;61.84
75604;BME280;64187;51.010;13.792;2023-06-14T05:42:13;100355.53;;;15.40;60.77
75604;BME280;64187;51.010;13.792;2023-06-14T05:47:12;100368.63;;;15.38;61.15
75604;BME280;64187;51.010;13.792;2023-06-14T05:52:11;100359.63;;;15.78;59.63
75604;BME280;64187;51.010;13.792;2023-06-14T05:57:11;100369.47;;;15.54;60.33
75604;BME280;64187;51.010;13.792;2023-06-14T06:02:10;100369.19;;;15.70;60.15
75604;BME280;64187;51.010;13.792;2023-06-14T06:07:09;100358.19;;;16.06;59.65
75604;BME280;64187;51.010;13.792;2023-06-14T06:12:08;100366.81;;;16.39;58.32
75604;BME280;64187;51.010;13.792;2023-06-14T06:17:07;100369.00;;;16.37;58.63
75604;BME280;64187;51.010;13.792;2023-06-14T06:22:06;100385.19;;;16.83;57.27
75604;BME280;64187;51.010;13.792;2023-06-14T06:27:05;100385.81;;;16.70;57.31
75604;BME280;64187;51.010;13.792;2023-06-14T06:32:07;100390.59;;;17.33;55.91
75604;BME280;64187;51.010;13.792;2023-06-14T06:37:08;100395.69;;;17.50;55.51
75604;BME280;64187;51.010;13.792;2023-06-14T06:42:06;100402.59;;;17.03;56.20
75604;BME280;64187;51.010;13.792;2023-06-14T06:47:08;100407.25;;;17.36;55.26
75604;BME280;64187;51.010;13.792;2023-06-14T06:52:08;100399.25;;;17.79;55.01
75604;BME280;64187;51.010;13.792;2023-06-14T06:57:07;100400.97;;;17.70;55.65
75604;BME280;64187;51.010;13.792;2023-06-14T07:02:06;100383.09;;;18.07;54.72
75604;BME280;64187;51.010;13.792;2023-06-14T07:07:06;100381.28;;;17.97;54.87
75604;BME280;64187;51.010;13.792;2023-06-14T07:12:05;100376.69;;;17.93;54.70
75604;BME280;64187;51.010;13.792;2023-06-14T07:17:04;100390.66;;;18.15;54.69
75604;BME280;64187;51.010;13.792;2023-06-14T07:22:04;100388.34;;;18.70;52.53
75604;BME280;64187;51.010;13.792;2023-06-14T07:27:04;100387.63;;;19.03;51.72
75604;BME280;64187;51.010;13.792;2023-06-14T07:32:03;100395.59;;;19.04;50.86
75604;BME280;64187;51.010;13.792;2023-06-14T07:37:02;100389.03;;;19.38;48.82
75604;BME280;64187;51.010;13.792;2023-06-14T07:42:01;100392.50;;;19.44;49.25
75604;BME280;64187;51.010;13.792;2023-06-14T07:47:01;100378.50;;;19.59;47.67
75604;BME280;64187;51.010;13.792;2023-06-14T07:52:00;100391.34;;;19.64;47.91
75604;BME280;64187;51.010;13.792;2023-06-14T07:56:59;100390.28;;;19.46;44.36
75604;BME280;64187;51.010;13.792;2023-06-14T08:01:59;100385.78;;;19.50;44.32
75604;BME280;64187;51.010;13.792;2023-06-14T08:06:59;100389.47;;;19.78;43.76
75604;BME280;64187;51.010;13.792;2023-06-14T08:11:58;100397.56;;;20.16;43.71
75604;BME280;64187;51.010;13.792;2023-06-14T08:16:57;100400.59;;;20.00;42.54
75604;BME280;64187;51.010;13.792;2023-06-14T08:21:56;100407.72;;;20.29;42.11
75604;BME280;64187;51.010;13.792;2023-06-14T08:26:55;100402.25;;;20.15;41.77
75604;BME280;64187;51.010;13.792;2023-06-14T08:31:55;100396.53;;;20.26;41.69
75604;BME280;64187;51.010;13.792;2023-06-14T08:36:54;100402.75;;;20.31;40.88
75604;BME280;64187;51.010;13.792;2023-06-14T08:41:54;100392.78;;;20.08;42.33
75604;BME280;64187;51.010;13.792;2023-06-14T08:46:55;100401.84;;;20.50;42.07
75604;BME280;64187;51.010;13.792;2023-06-14T08:52:00;100403.16;;;20.38;42.16
75604;BME280;64187;51.010;13.792;2023-06-14T08:56:59;100385.63;;;20.76;41.34
75604;BME280;64187;51.010;13.792;2023-06-14T09:01:59;100400.19;;;20.49;40.67
75604;BME280;64187;51.010;13.792;2023-06-14T09:07:11;100398.16;;;20.54;41.79
75604;BME280;64187;51.010;13.792;2023-06-14T09:12:11;100400.63;;;20.56;41.59
75604;BME280;64187;51.010;13.792;2023-06-14T09:17:13;100402.50;;;20.97;40.19
75604;BME280;64187;51.010;13.792;2023-06-14T09:22:12;100412.66;;;21.10;38.99
75604;BME280;64187;51.010;13.792;2023-06-14T09:27:15;100412.28;;;21.25;39.30
75604;BME280;64187;51.010;13.792;2023-06-14T09:32:14;100404.38;;;21.10;38.14
75604;BME280;64187;51.010;13.792;2023-06-14T09:37:13;100400.59;;;21.20;39.29
75604;BME280;64187;51.010;13.792;2023-06-14T09:42:24;100402.75;;;21.09;41.58
75604;BME280;64187;51.010;13.792;2023-06-14T09:47:26;100404.13;;;20.84;41.30
75604;BME280;64187;51.010;13.792;2023-06-14T09:52:27;100404.69;;;21.45;41.25
75604;BME280;64187;51.010;13.792;2023-06-14T09:57:27;100407.16;;;21.33;40.80
75604;BME280;64187;51.010;13.792;2023-06-14T10:02:34;100401.31;;;21.12;41.68
75604;BME280;64187;51.010;13.792;2023-06-14T10:07:39;100398.13;;;21.18;42.41
75604;BME280;64187;51.010;13.792;2023-06-14T10:12:39;100399.91;;;21.14;41.29
75604;BME280;64187;51.010;13.792;2023-06-14T10:23:00;100398.75;;;21.15;41.29
75604;BME280;64187;51.010;13.792;2023-06-14T10:28:21;100396.56;;;21.26;41.90
75604;BME280;64187;51.010;13.792;2023-06-14T10:33:29;100389.41;;;21.39;40.83
75604;BME280;64187;51.010;13.792;2023-06-14T10:38:30;100390.81;;;21.14;40.63
75604;BME280;64187;51.010;13.792;2023-06-14T10:43:31;100390.09;;;20.72;42.28
75604;BME280;64187;51.010;13.792;2023-06-14T10:48:30;100393.84;;;20.90;42.06
75604;BME280;64187;51.010;13.792;2023-06-14T10:53:40;100378.34;;;21.53;41.38
75604;BME280;64187;51.010;13.792;2023-06-14T10:58:39;100383.06;;;21.38;40.80
75604;BME280;64187;51.010;13.792;2023-06-14T11:03:50;100369.13;;;21.88;41.29
75604;BME280;64187;51.010;13.792;2023-06-14T11:14:11;100365.44;;;21.17;41.60
75604;BME280;64187;51.010;13.792;2023-06-14T11:19:10;100360.72;;;21.17;42.27
75604;BME280;64187;51.010;13.792;2023-06-14T11:24:12;100366.53;;;20.93;44.33
75604;BME280;64187;51.010;13.792;2023-06-14T11:29:11;100367.97;;;20.77;44.40
75604;BME280;64187;51.010;13.792;2023-06-14T11:34:12;100374.00;;;20.79;44.75
75604;BME280;64187;51.010;13.792;2023-06-14T11:39:11;100370.97;;;20.67;44.71
75604;BME280;64187;51.010;13.792;2023-06-14T11:44:13;100372.47;;;21.09;43.89
75604;BME280;64187;51.010;13.792;2023-06-14T11:49:12;100381.25;;;21.34;43.85
75604;BME280;64187;51.010;13.792;2023-06-14T11:54:11;100372.81;;;21.30;44.14
75604;BME280;64187;51.010;13.792;2023-06-14T11:59:13;100365.50;;;21.48;44.12
75604;BME280;64187;51.010;13.792;2023-06-14T12:04:13;100353.22;;;21.54;45.52
75604;BME280;64187;51.010;13.792;2023-06-14T12:09:12;100359.38;;;21.82;42.74
75604;BME280;64187;51.010;13.792;2023-06-14T12:14:16;100366.16;;;21.31;44.94
75604;BME280;64187;51.010;13.792;2023-06-14T12:19:17;100375.31;;;21.18;44.86
75604;BME280;64187;51.010;13.792;2023-06-14T12:24:16;100369.81;;;20.81;45.70
75604;BME280;64187;51.010;13.792;2023-06-14T12:29:15;100371.84;;;20.90;45.37
75604;BME280;64187;51.010;13.792;2023-06-14T12:34:14;100366.41;;;20.98;45.35
75604;BME280;64187;51.010;13.792;2023-06-14T12:39:13;100363.59;;;21.12;45.49
75604;BME280;64187;51.010;13.792;2023-06-14T12:44:13;100355.44;;;21.75;44.83
75604;BME280;64187;51.010;13.792;2023-06-14T12:49:12;100355.19;;;22.25;43.87
75604;BME280;64187;51.010;13.792;2023-06-14T12:54:11;100344.41;;;22.72;41.89
75604;BME280;64187;51.010;13.792;2023-06-14T12:59:10;100336.78;;;23.30;40.98
75604;BME280;64187;51.010;13.792;2023-06-14T13:04:10;100333.88;;;23.09;42.93
75604;BME280;64187;51.010;13.792;2023-06-14T13:09:09;100333.63;;;22.35;42.83
75604;BME280;64187;51.010;13.792;2023-06-14T13:14:08;100340.31;;;22.03;43.38
75604;BME280;64187;51.010;13.792;2023-06-14T13:19:23;100338.00;;;21.88;43.27
75604;BME280;64187;51.010;13.792;2023-06-14T13:24:22;100323.16;;;22.64;41.94
75604;BME280;64187;51.010;13.792;2023-06-14T13:29:23;100320.09;;;23.09;39.04
75604;BME280;64187;51.010;13.792;2023-06-14T13:34:22;100319.41;;;23.12;41.16
75604;BME280;64187;51.010;13.792;2023-06-14T13:39:21;100313.84;;;22.42;43.25
75604;BME280;64187;51.010;13.792;2023-06-14T13:44:20;100327.25;;;21.78;43.83
75604;BME280;64187;51.010;13.792;2023-06-14T13:49:45;100322.56;;;21.24;44.44
75604;BME280;64187;51.010;13.792;2023-06-14T13:55:02;100311.34;;;21.75;42.58
75604;BME280;64187;51.010;13.792;2023-06-14T14:00:19;100314.38;;;22.62;40.58
75604;BME280;64187;51.010;13.792;2023-06-14T14:05:35;100308.06;;;22.78;39.74
75604;BME280;64187;51.010;13.792;2023-06-14T14:10:52;100307.69;;;23.32;39.47
75604;BME280;64187;51.010;13.792;2023-06-14T14:16:08;100311.13;;;22.60;40.41
75604;BME280;64187;51.010;13.792;2023-06-14T14:21:26;100312.72;;;22.34;40.91
75604;BME280;64187;51.010;13.792;2023-06-14T14:26:42;100318.47;;;21.76;42.56
75604;BME280;64187;51.010;13.792;2023-06-14T14:31:59;100319.25;;;21.67;43.40
75604;BME280;64187;51.010;13.792;2023-06-14T14:36:58;100302.31;;;22.40;40.17
75604;BME280;64187;51.010;13.792;2023-06-14T14:41:57;100304.97;;;22.97;38.66
75604;BME280;64187;51.010;13.792;2023-06-14T14:46:56;100302.03;;;23.03;39.15
75604;BME280;64187;51.010;13.792;2023-06-14T14:51:55;100297.66;;;23.19;36.99
75604;BME280;64187;51.010;13.792;2023-06-14T14:57:06;100295.38;;;23.21;36.77
75604;BME280;64187;51.010;13.792;2023-06-14T15:02:05;100288.88;;;23.26;35.63
75604;BME280;64187;51.010;13.792;2023-06-14T15:07:05;100291.78;;;23.29;34.17
75604;BME280;64187;51.010;13.792;2023-06-14T15:12:05;100286.81;;;23.61;33.99
75604;BME280;64187;51.010;13.792;2023-06-14T15:17:05;100289.69;;;23.64;32.17
75604;BME280;64187;51.010;13.792;2023-06-14T15:22:06;100288.41;;;23.62;32.59
75604;BME280;64187;51.010;13.792;2023-06-14T15:27:06;100281.00;;;23.92;34.41
75604;BME280;64187;51.010;13.792;2023-06-14T15:32:08;100289.25;;;24.01;37.75
75604;BME280;64187;51.010;13.792;2023-06-14T15:37:07;100292.00;;;24.01;35.18
75604;BME280;64187;51.010;13.792;2023-06-14T15:42:07;100283.88;;;23.57;36.24
75604;BME280;64187;51.010;13.792;2023-06-14T15:47:06;100290.19;;;23.67;36.45
75604;BME280;64187;51.010;13.792;2023-06-14T15:52:06;100291.19;;;23.62;35.29
75604;BME280;64187;51.010;13.792;2023-06-14T15:57:05;100288.47;;;23.92;35.57
75604;BME280;64187;51.010;13.792;2023-06-14T16:02:05;100283.84;;;23.75;33.94
75604;BME280;64187;51.010;13.792;2023-06-14T16:07:05;100289.25;;;24.01;32.12
75604;BME280;64187;51.010;13.792;2023-06-14T16:12:04;100285.91;;;23.86;35.48
75604;BME280;64187;51.010;13.792;2023-06-14T16:17:04;100276.63;;;23.91;35.63
75604;BME280;64187;51.010;13.792;2023-06-14T16:22:04;100282.34;;;24.45;33.02
75604;BME280;64187;51.010;13.792;2023-06-14T16:27:05;100284.16;;;24.62;32.72
75604;BME280;64187;51.010;13.792;2023-06-14T16:32:07;100286.28;;;24.99;31.28
75604;BME280;64187;51.010;13.792;2023-06-14T16:37:07;100288.59;;;25.30;30.89
75604;BME280;64187;51.010;13.792;2023-06-14T16:42:07;100284.03;;;26.45;30.18
75604;BME280;64187;51.010;13.792;2023-06-14T16:47:06;100296.94;;;27.65;27.77
75604;BME280;64187;51.010;13.792;2023-06-14T16:52:07;100299.34;;;28.85;27.88
75604;BME280;64187;51.010;13.792;2023-06-14T16:57:06;100297.94;;;29.57;27.31
75604;BME280;64187;51.010;13.792;2023-06-14T17:02:06;100307.50;;;30.05;25.12
75604;BME280;64187;51.010;13.792;2023-06-14T17:07:05;100308.09;;;31.84;22.17
75604;BME280;64187;51.010;13.792;2023-06-14T17:12:05;100301.44;;;31.95;21.75
75604;BME280;64187;51.010;13.792;2023-06-14T17:17:04;100300.94;;;31.42;23.81
75604;BME280;64187;51.010;13.792;2023-06-14T17:22:05;100305.44;;;31.16;24.96
75604;BME280;64187;51.010;13.792;2023-06-14T17:27:04;100314.88;;;28.86;26.41
75604;BME280;64187;51.010;13.792;2023-06-14T17:32:04;100311.91;;;28.24;26.69
75604;BME280;64187;51.010;13.792;2023-06-14T17:37:04;100335.50;;;25.93;32.97
75604;BME280;64187;51.010;13.792;2023-06-14T17:42:03;100315.41;;;24.33;33.32
75604;BME280;64187;51.010;13.792;2023-06-14T17:47:02;100312.75;;;23.86;34.67
75604;BME280;64187;51.010;13.792;2023-06-14T17:52:01;100315.44;;;23.48;36.43
75604;BME280;64187;51.010;13.792;2023-06-14T17:57:01;100308.88;;;23.14;36.26
75604;BME280;64187;51.010;13.792;2023-06-14T18:02:00;100312.09;;;22.72;37.92
75604;BME280;64187;51.010;13.792;2023-06-14T18:07:00;100318.41;;;22.47;38.94
75604;BME280;64187;51.010;13.792;2023-06-14T18:11:59;100325.34;;;22.27;37.36
75604;BME280;64187;51.010;13.792;2023-06-14T18:16:58;100326.97;;;22.28;38.61
75604;BME280;64187;51.010;13.792;2023-06-14T18:21:58;100331.69;;;21.96;38.86
75604;BME280;64187;51.010;13.792;2023-06-14T18:26:57;100338.03;;;21.97;40.84
75604;BME280;64187;51.010;13.792;2023-06-14T18:31:57;100342.31;;;21.71;41.18
75604;BME280;64187;51.010;13.792;2023-06-14T18:36:56;100347.19;;;21.75;41.18
75604;BME280;64187;51.010;13.792;2023-06-14T18:41:56;100346.16;;;21.62;42.59
75604;BME280;64187;51.010;13.792;2023-06-14T18:46:55;100351.97;;;21.38;42.76
75604;BME280;64187;51.010;13.792;2023-06-14T18:51:54;100353.47;;;21.44;43.25
75604;BME280;64187;51.010;13.792;2023-06-14T18:56:53;100355.72;;;21.19;43.97
75604;BME280;64187;51.010;13.792;2023-06-14T19:01:52;100347.22;;;21.07;44.36
75604;BME280;64187;51.010;13.792;2023-06-14T19:06:51;100357.03;;;21.22;44.50
75604;BME280;64187;51.010;13.792;2023-06-14T19:11:50;100358.41;;;21.11;44.68
75604;BME280;64187;51.010;13.792;2023-06-14T19:16:49;100353.63;;;20.80;46.03
75604;BME280;64187;51.010;13.792;2023-06-14T19:21:51;100360.97;;;20.71;46.23
75604;BME280;64187;51.010;13.792;2023-06-14T19:26:50;100361.25;;;19.40;49.79
75604;BME280;64187;51.010;13.792;2023-06-14T19:31:49;100369.16;;;18.70;52.02
75604;BME280;64187;51.010;13.792;2023-06-14T19:36:51;100370.28;;;18.69;52.12
75604;BME280;64187;51.010;13.792;2023-06-14T19:41:53;100373.78;;;18.32;53.77
75604;BME280;64187;51.010;13.792;2023-06-14T19:46:52;100375.97;;;18.06;54.05
75604;BME280;64187;51.010;13.792;2023-06-14T19:51:51;100384.19;;;18.06;53.96
75604;BME280;64187;51.010;13.792;2023-06-14T19:56:50;100386.22;;;17.95;55.14
75604;BME280;64187;51.010;13.792;2023-06-14T20:01:49;100398.41;;;17.50;56.34
75604;BME280;64187;51.010;13.792;2023-06-14T20:06:48;100402.44;;;17.23;57.72
75604;BME280;64187;51.010;13.792;2023-06-14T20:11:53;100402.13;;;17.30;58.11
75604;BME280;64187;51.010;13.792;2023-06-14T20:16:53;100419.84;;;17.37;58.74
75604;BME280;64187;51.010;13.792;2023-06-14T20:21:55;100415.28;;;17.96;56.60
75604;BME280;64187;51.010;13.792;2023-06-14T20:26:54;100419.22;;;17.46;57.69
75604;BME280;64187;51.010;13.792;2023-06-14T20:31:53;100416.22;;;17.47;58.47
75604;BME280;64187;51.010;13.792;2023-06-14T20:36:52;100409.63;;;17.48;58.58
75604;BME280;64187;51.010;13.792;2023-06-14T20:41:51;100409.22;;;16.91;60.60
75604;BME280;64187;51.010;13.792;2023-06-14T20:46:51;100409.28;;;16.71;61.46
75604;BME280;64187;51.010;13.792;2023-06-14T20:51:50;100412.69;;;16.47;62.77
75604;BME280;64187;51.010;13.792;2023-06-14T20:56:51;100414.81;;;16.61;62.12
75604;BME280;64187;51.010;13.792;2023-06-14T21:01:50;100420.19;;;16.81;61.06
75604;BME280;64187;51.010;13.792;2023-06-14T21:06:49;100423.25;;;16.64;62.03
75604;BME280;64187;51.010;13.792;2023-06-14T21:11:48;100418.25;;;16.06;64.19
75604;BME280;64187;51.010;13.792;2023-06-14T21:16:47;100415.28;;;15.57;66.30
75604;BME280;64187;51.010;13.792;2023-06-14T21:21:48;100422.09;;;15.49;66.46
75604;BME280;64187;51.010;13.792;2023-06-14T21:26:47;100424.28;;;15.52;66.35
75604;BME280;64187;51.010;13.792;2023-06-14T21:31:46;100424.03;;;15.79;64.84
75604;BME280;64187;51.010;13.792;2023-06-14T21:36:46;100422.91;;;15.49;66.25
75604;BME280;64187;51.010;13.792;2023-06-14T21:41:45;100421.00;;;15.19;67.66
75604;BME280;64187;51.010;13.792;2023-06-14T21:46:44;100421.22;;;14.92;68.49
75604;BME280;64187;51.010;13.792;2023-06-14T21:51:43;100421.00;;;15.40;66.37
75604;BME280;64187;51.010;13.792;2023-06-14T21:56:43;100420.06;;;14.73;69.02
75604;BME280;64187;51.010;13.792;2023-06-14T22:01:41;100411.66;;;14.90;68.81
75604;BME280;64187;51.010;13.792;2023-06-14T22:06:40;100411.44;;;15.12;67.88
75604;BME280;64187;51.010;13.792;2023-06-14T22:11:43;100423.94;;;14.92;68.19
75604;BME280;64187;51.010;13.792;2023-06-14T22:16:43;100422.50;;;14.64;69.57
75604;BME280;64187;51.010;13.792;2023-06-14T22:21:42;100429.56;;;14.12;71.77
75604;BME280;64187;51.010;13.792;2023-06-14T22:26:43;100430.94;;;14.68;69.53
75604;BME280;64187;51.010;13.792;2023-06-14T22:31:51;100434.75;;;14.61;69.49
75604;BME280;64187;51.010;13.792;2023-06-14T22:36:50;100433.06;;;14.08;71.60
75604;BME280;64187;51.010;13.792;2023-06-14T22:41:51;100432.91;;;13.82;72.41
75604;BME280;64187;51.010;13.792;2023-06-14T22:46:52;100431.50;;;14.17;70.87
75604;BME280;64187;51.010;13.792;2023-06-14T22:51:53;100428.94;;;14.53;69.13
75604;BME280;64187;51.010;13.792;2023-06-14T22:56:54;100433.25;;;13.96;71.17
75604;BME280;64187;51.010;13.792;2023-06-14T23:01:55;100426.78;;;14.02;71.16
75604;BME280;64187;51.010;13.792;2023-06-14T23:06:54;100425.94;;;13.59;72.92
75604;BME280;64187;51.010;13.792;2023-06-14T23:11:53;100437.13;;;13.68;72.93
75604;BME280;64187;51.010;13.792;2023-06-14T23:16:52;100440.59;;;13.58;73.25
75604;BME280;64187;51.010;13.792;2023-06-14T23:21:52;100448.38;;;13.44;73.83
75604;BME280;64187;51.010;13.792;2023-06-14T23:26:51;100445.00;;;13.32;74.42
75604;BME280;64187;51.010;13.792;2023-06-14T23:31:51;100437.88;;;13.04;75.46
75604;BME280;64187;51.010;13.792;2023-06-14T23:36:51;100433.16;;;13.21;74.40
75604;BME280;64187;51.010;13.792;2023-06-14T23:41:51;100424.88;;;12.84;75.83
75604;BME280;64187;51.010;13.792;2023-06-14T23:46:53;100434.00;;;12.73;76.44
75604;BME280;64187;51.010;13.792;2023-06-14T23:51:55;100430.91;;;12.64;77.15
75604;BME280;64187;51.010;13.792;2023-06-14T23:56:56;100430.72;;;12.92;75.96
